Página principal
METAR-TAF:

METAR-TAF

Aeroportos :

Alice Springs, Austrália

latitude: 23-48S, longitude: 133-53E, altura: 545 m

Observação actual do tempo

O boletim foi feito há 4 horas e 14 minutos, às 00:30 UTC
Vento 10 kt de norte
Temperatura 33°C
Humidade 20%
Pressão 1007 hPa
Visibilidade 10 km ou mais
sem nuvens abaixo de 1500 metros e sem cumulonimbus

METAR: YBAS 220030Z 01010KT CAVOK 33/07 Q1007

Hora: 14:14 (04:44 UTC)

Previsão

O boletim foi feito há 5 horas e 17 minutos, às 23:27 UTC
Previsão válida de 22 às 00 UTC a 22 às 24 UTC
Vento 8 kt de sudoeste
Visibilidade 10 km ou mais
sem nuvens abaixo de 1500 metros e sem cumulonimbus

TAF: YBAS 212327Z 2200/2224 22008KT CAVOK

Observações e previsões do tempo de mais de 4000 aeroportos (mensagens METAR e TAF).

As estações disponíveis são os pontos amarelos e vermelhos sobre o mapa.

Mova o rato sobre o mapa para ver o nome da estação.

Depois clique no ponto para visualizar as observações e previsões meteorológicas.

Para alterar o mapa : clique nos botões verdes com uma cruz preta para aumentar o zoom; no botão verde com uma pitada de zoom; ou nas setas verdes para mapas adjacentes.


METAR-TAF: